sensor_id;sensor_type;location;lat;lon;timestamp;pressure;altitude;pressure_sealevel;temperature;humidity
54806;BME280;62866;55.776;37.496;2022-09-12T00:01:23;100068.78;;;11.46;66.75
54806;BME280;62866;55.776;37.496;2022-09-12T00:03:54;100069.31;;;11.41;66.72
54806;BME280;62866;55.776;37.496;2022-09-12T00:06:24;100077.94;;;11.37;66.83
54806;BME280;62866;55.776;37.496;2022-09-12T00:08:50;100067.22;;;11.37;67.78
54806;BME280;62866;55.776;37.496;2022-09-12T00:11:17;100069.91;;;11.37;68.09
54806;BME280;62866;55.776;37.496;2022-09-12T00:13:43;100055.56;;;11.30;67.69
54806;BME280;62866;55.776;37.496;2022-09-12T00:16:21;100062.22;;;11.34;67.72
54806;BME280;62866;55.776;37.496;2022-09-12T00:18:47;100065.75;;;11.34;68.74
54806;BME280;62866;55.776;37.496;2022-09-12T00:21:14;100064.25;;;11.32;68.77
54806;BME280;62866;55.776;37.496;2022-09-12T00:23:40;100056.22;;;11.32;68.96
54806;BME280;62866;55.776;37.496;2022-09-12T00:26:06;100058.06;;;11.31;68.96
54806;BME280;62866;55.776;37.496;2022-09-12T00:28:33;100058.00;;;11.25;69.99
54806;BME280;62866;55.776;37.496;2022-09-12T00:31:03;100050.53;;;11.20;69.48
54806;BME280;62866;55.776;37.496;2022-09-12T00:33:30;100050.06;;;11.17;70.30
54806;BME280;62866;55.776;37.496;2022-09-12T00:35:55;100039.53;;;11.15;70.22
54806;BME280;62866;55.776;37.496;2022-09-12T00:38:21;100038.44;;;11.10;70.60
54806;BME280;62866;55.776;37.496;2022-09-12T00:40:47;100040.66;;;11.06;71.16
54806;BME280;62866;55.776;37.496;2022-09-12T00:43:14;100041.41;;;11.00;71.47
54806;BME280;62866;55.776;37.496;2022-09-12T00:45:58;100035.97;;;10.93;70.93
54806;BME280;62866;55.776;37.496;2022-09-12T00:48:33;100034.78;;;10.96;72.29
54806;BME280;62866;55.776;37.496;2022-09-12T00:50:59;100034.94;;;10.94;72.22
54806;BME280;62866;55.776;37.496;2022-09-12T00:53:26;100035.78;;;10.95;72.69
54806;BME280;62866;55.776;37.496;2022-09-12T00:55:53;100042.16;;;10.94;72.88
54806;BME280;62866;55.776;37.496;2022-09-12T00:58:29;100032.81;;;10.90;72.87
54806;BME280;62866;55.776;37.496;2022-09-12T01:00:57;100030.13;;;10.90;72.60
54806;BME280;62866;55.776;37.496;2022-09-12T01:03:23;100013.34;;;10.81;73.12
54806;BME280;62866;55.776;37.496;2022-09-12T01:05:56;100030.78;;;10.92;72.99
54806;BME280;62866;55.776;37.496;2022-09-12T01:08:26;100027.66;;;10.88;73.16
54806;BME280;62866;55.776;37.496;2022-09-12T01:10:53;100024.63;;;10.91;72.81
54806;BME280;62866;55.776;37.496;2022-09-12T01:13:19;100028.94;;;10.92;72.93
54806;BME280;62866;55.776;37.496;2022-09-12T01:15:45;100023.59;;;10.92;73.06
54806;BME280;62866;55.776;37.496;2022-09-12T01:18:22;100025.09;;;10.95;73.34
54806;BME280;62866;55.776;37.496;2022-09-12T01:20:50;100020.56;;;10.95;73.35
54806;BME280;62866;55.776;37.496;2022-09-12T01:29:13;100012.72;;;10.94;73.38
54806;BME280;62866;55.776;37.496;2022-09-12T01:34:23;100014.00;;;10.83;72.25
54806;BME280;62866;55.776;37.496;2022-09-12T01:39:46;100007.81;;;10.83;73.18
54806;BME280;62866;55.776;37.496;2022-09-12T01:42:48;100014.19;;;10.82;72.69
54806;BME280;62866;55.776;37.496;2022-09-12T01:48:03;100027.56;;;10.82;73.16
54806;BME280;62866;55.776;37.496;2022-09-12T01:50:33;100019.91;;;10.79;71.03
54806;BME280;62866;55.776;37.496;2022-09-12T01:55:40;100008.84;;;10.67;72.85
54806;BME280;62866;55.776;37.496;2022-09-12T01:58:14;100007.91;;;10.60;73.34
54806;BME280;62866;55.776;37.496;2022-09-12T02:01:01;100016.59;;;10.62;74.49
54806;BME280;62866;55.776;37.496;2022-09-12T02:03:38;100010.41;;;10.61;74.33
54806;BME280;62866;55.776;37.496;2022-09-12T02:06:16;100005.91;;;10.62;74.35
54806;BME280;62866;55.776;37.496;2022-09-12T02:08:53;100010.22;;;10.63;74.46
54806;BME280;62866;55.776;37.496;2022-09-12T02:11:20;100010.50;;;10.68;74.25
54806;BME280;62866;55.776;37.496;2022-09-12T02:13:59;100005.41;;;10.73;73.53
54806;BME280;62866;55.776;37.496;2022-09-12T02:16:38;100015.94;;;10.75;74.69
54806;BME280;62866;55.776;37.496;2022-09-12T02:19:17;100018.44;;;10.76;74.46
54806;BME280;62866;55.776;37.496;2022-09-12T02:21:56;100014.75;;;10.77;74.54
54806;BME280;62866;55.776;37.496;2022-09-12T02:24:27;100004.88;;;10.78;75.09
54806;BME280;62866;55.776;37.496;2022-09-12T02:27:04;100016.84;;;10.82;74.28
54806;BME280;62866;55.776;37.496;2022-09-12T02:29:31;100005.97;;;10.83;74.11
54806;BME280;62866;55.776;37.496;2022-09-12T02:31:59;100002.28;;;10.84;74.55
54806;BME280;62866;55.776;37.496;2022-09-12T02:39:54;100005.81;;;10.70;75.35
54806;BME280;62866;55.776;37.496;2022-09-12T02:42:22;100007.47;;;10.71;75.83
54806;BME280;62866;55.776;37.496;2022-09-12T02:44:48;100000.91;;;10.74;75.20
54806;BME280;62866;55.776;37.496;2022-09-12T02:47:27;100000.72;;;10.75;75.91
54806;BME280;62866;55.776;37.496;2022-09-12T02:49:54;100007.38;;;10.79;75.28
54806;BME280;62866;55.776;37.496;2022-09-12T02:52:21;100001.00;;;10.80;75.33
54806;BME280;62866;55.776;37.496;2022-09-12T02:54:47;100007.00;;;10.82;75.07
54806;BME280;62866;55.776;37.496;2022-09-12T02:57:15;100006.16;;;10.82;75.42
54806;BME280;62866;55.776;37.496;2022-09-12T02:59:41;100001.38;;;10.77;75.25
54806;BME280;62866;55.776;37.496;2022-09-12T03:05:07;100009.84;;;10.81;75.04
54806;BME280;62866;55.776;37.496;2022-09-12T03:10:51;100009.41;;;10.62;76.10
54806;BME280;62866;55.776;37.496;2022-09-12T03:19:10;100008.91;;;10.44;77.91
54806;BME280;62866;55.776;37.496;2022-09-12T03:24:34;100014.34;;;10.36;78.30
54806;BME280;62866;55.776;37.496;2022-09-12T03:29:30;100014.69;;;10.33;78.95
54806;BME280;62866;55.776;37.496;2022-09-12T03:31:57;100021.03;;;10.32;78.71
54806;BME280;62866;55.776;37.496;2022-09-12T03:34:25;100020.78;;;10.27;79.00
54806;BME280;62866;55.776;37.496;2022-09-12T03:36:51;100013.94;;;10.24;79.47
54806;BME280;62866;55.776;37.496;2022-09-12T03:39:17;100012.59;;;10.29;79.06
54806;BME280;62866;55.776;37.496;2022-09-12T03:41:43;100014.22;;;10.30;79.70
54806;BME280;62866;55.776;37.496;2022-09-12T03:44:08;100017.38;;;10.33;79.07
54806;BME280;62866;55.776;37.496;2022-09-12T03:46:34;100020.69;;;10.35;79.18
54806;BME280;62866;55.776;37.496;2022-09-12T03:49:00;100008.34;;;10.34;78.86
54806;BME280;62866;55.776;37.496;2022-09-12T03:51:25;99997.72;;;10.26;79.00
54806;BME280;62866;55.776;37.496;2022-09-12T03:53:51;100010.66;;;10.37;78.75
54806;BME280;62866;55.776;37.496;2022-09-12T03:56:16;100005.31;;;10.37;78.44
54806;BME280;62866;55.776;37.496;2022-09-12T03:58:43;100008.44;;;10.41;78.54
54806;BME280;62866;55.776;37.496;2022-09-12T04:01:14;100007.06;;;10.45;78.73
54806;BME280;62866;55.776;37.496;2022-09-12T04:03:45;100002.56;;;10.45;78.85
54806;BME280;62866;55.776;37.496;2022-09-12T04:06:12;100007.69;;;10.47;79.51
54806;BME280;62866;55.776;37.496;2022-09-12T04:08:39;100009.38;;;10.48;78.68
54806;BME280;62866;55.776;37.496;2022-09-12T04:11:13;100011.50;;;10.52;79.57
54806;BME280;62866;55.776;37.496;2022-09-12T04:13:40;100004.78;;;10.56;78.66
54806;BME280;62866;55.776;37.496;2022-09-12T04:16:06;100004.59;;;10.58;78.43
54806;BME280;62866;55.776;37.496;2022-09-12T04:18:32;100002.09;;;10.56;78.95
54806;BME280;62866;55.776;37.496;2022-09-12T04:20:58;100000.25;;;10.57;78.58
54806;BME280;62866;55.776;37.496;2022-09-12T04:23:23;100001.38;;;10.62;78.90
54806;BME280;62866;55.776;37.496;2022-09-12T04:25:53;100002.19;;;10.63;78.91
54806;BME280;62866;55.776;37.496;2022-09-12T04:28:19;100003.97;;;10.71;78.53
54806;BME280;62866;55.776;37.496;2022-09-12T04:30:45;99997.50;;;10.65;78.94
54806;BME280;62866;55.776;37.496;2022-09-12T04:33:10;100014.47;;;10.72;78.99
54806;BME280;62866;55.776;37.496;2022-09-12T04:35:36;100007.66;;;10.70;78.60
54806;BME280;62866;55.776;37.496;2022-09-12T04:38:01;100005.16;;;10.68;78.96
54806;BME280;62866;55.776;37.496;2022-09-12T04:40:28;100005.50;;;10.65;78.69
54806;BME280;62866;55.776;37.496;2022-09-12T04:42:54;100001.75;;;10.59;78.98
54806;BME280;62866;55.776;37.496;2022-09-12T04:45:21;100004.94;;;10.55;79.84
54806;BME280;62866;55.776;37.496;2022-09-12T04:47:47;100014.19;;;10.52;80.00
54806;BME280;62866;55.776;37.496;2022-09-12T04:50:13;100008.00;;;10.52;79.89
54806;BME280;62866;55.776;37.496;2022-09-12T04:52:39;100008.53;;;10.47;79.48
54806;BME280;62866;55.776;37.496;2022-09-12T04:55:06;100009.53;;;10.46;80.58
54806;BME280;62866;55.776;37.496;2022-09-12T04:57:32;100003.19;;;10.47;80.81
54806;BME280;62866;55.776;37.496;2022-09-12T04:59:58;100006.34;;;10.51;80.20
54806;BME280;62866;55.776;37.496;2022-09-12T05:02:24;100006.00;;;10.54;79.94
54806;BME280;62866;55.776;37.496;2022-09-12T05:04:49;100000.63;;;10.54;80.57
54806;BME280;62866;55.776;37.496;2022-09-12T05:07:17;100011.44;;;10.60;80.75
54806;BME280;62866;55.776;37.496;2022-09-12T05:09:43;100020.53;;;10.66;80.26
54806;BME280;62866;55.776;37.496;2022-09-12T05:12:09;100021.19;;;10.68;80.10
54806;BME280;62866;55.776;37.496;2022-09-12T05:14:34;100013.25;;;10.75;80.60
54806;BME280;62866;55.776;37.496;2022-09-12T05:17:00;100007.66;;;10.70;80.46
54806;BME280;62866;55.776;37.496;2022-09-12T05:19:27;100011.50;;;10.67;80.96
54806;BME280;62866;55.776;37.496;2022-09-12T05:21:54;100016.50;;;10.70;80.94
54806;BME280;62866;55.776;37.496;2022-09-12T05:24:20;100006.91;;;10.76;80.92
54806;BME280;62866;55.776;37.496;2022-09-12T05:26:46;100012.53;;;10.81;80.21
54806;BME280;62866;55.776;37.496;2022-09-12T05:29:11;100012.81;;;10.86;80.52
54806;BME280;62866;55.776;37.496;2022-09-12T05:31:37;100011.22;;;10.91;80.46
54806;BME280;62866;55.776;37.496;2022-09-12T05:34:03;100010.78;;;11.02;80.11
54806;BME280;62866;55.776;37.496;2022-09-12T05:36:31;100016.03;;;11.11;80.01
54806;BME280;62866;55.776;37.496;2022-09-12T05:38:58;99991.66;;;11.06;79.67
54806;BME280;62866;55.776;37.496;2022-09-12T05:41:26;99993.97;;;11.09;79.13
54806;BME280;62866;55.776;37.496;2022-09-12T05:43:53;100003.66;;;11.10;79.16
54806;BME280;62866;55.776;37.496;2022-09-12T05:46:21;100009.19;;;11.08;79.02
54806;BME280;62866;55.776;37.496;2022-09-12T05:48:48;100002.06;;;11.15;78.84
54806;BME280;62866;55.776;37.496;2022-09-12T05:51:20;100011.94;;;11.29;79.26
54806;BME280;62866;55.776;37.496;2022-09-12T05:53:48;99999.19;;;11.31;78.49
54806;BME280;62866;55.776;37.496;2022-09-12T05:56:16;100005.25;;;11.40;78.04
54806;BME280;62866;55.776;37.496;2022-09-12T05:58:45;100003.69;;;11.46;77.73
54806;BME280;62866;55.776;37.496;2022-09-12T06:01:14;100007.28;;;11.53;77.35
54806;BME280;62866;55.776;37.496;2022-09-12T06:03:47;99998.53;;;11.44;77.67
54806;BME280;62866;55.776;37.496;2022-09-12T06:06:14;99993.53;;;11.41;78.12
54806;BME280;62866;55.776;37.496;2022-09-12T06:08:42;99995.38;;;11.40;77.30
54806;BME280;62866;55.776;37.496;2022-09-12T06:11:11;99995.00;;;11.44;77.54
54806;BME280;62866;55.776;37.496;2022-09-12T06:13:38;99998.78;;;11.49;77.61
54806;BME280;62866;55.776;37.496;2022-09-12T06:16:13;99984.19;;;11.52;77.36
54806;BME280;62866;55.776;37.496;2022-09-12T06:18:39;99990.25;;;11.60;77.45
54806;BME280;62866;55.776;37.496;2022-09-12T06:21:10;99984.41;;;11.71;76.89
54806;BME280;62866;55.776;37.496;2022-09-12T06:23:37;99989.19;;;11.76;76.52
54806;BME280;62866;55.776;37.496;2022-09-12T06:26:03;99982.41;;;11.80;75.68
54806;BME280;62866;55.776;37.496;2022-09-12T06:28:31;99992.00;;;11.89;75.86
54806;BME280;62866;55.776;37.496;2022-09-12T06:31:21;99988.47;;;12.10;75.31
54806;BME280;62866;55.776;37.496;2022-09-12T06:33:49;99993.19;;;12.29;74.73
54806;BME280;62866;55.776;37.496;2022-09-12T06:36:23;99992.47;;;12.48;74.50
54806;BME280;62866;55.776;37.496;2022-09-12T06:38:57;99995.31;;;12.68;73.69
54806;BME280;62866;55.776;37.496;2022-09-12T06:41:24;99988.41;;;12.87;72.82
54806;BME280;62866;55.776;37.496;2022-09-12T06:43:50;99981.00;;;12.96;72.73
54806;BME280;62866;55.776;37.496;2022-09-12T06:46:16;99988.28;;;13.08;71.13
54806;BME280;62866;55.776;37.496;2022-09-12T06:48:43;99991.47;;;13.18;70.87
54806;BME280;62866;55.776;37.496;2022-09-12T06:51:13;99980.34;;;13.21;70.84
54806;BME280;62866;55.776;37.496;2022-09-12T06:53:40;99991.69;;;13.23;70.22
54806;BME280;62866;55.776;37.496;2022-09-12T06:56:12;99997.50;;;13.27;70.08
54806;BME280;62866;55.776;37.496;2022-09-12T06:58:38;99988.59;;;13.26;69.96
54806;BME280;62866;55.776;37.496;2022-09-12T07:01:06;100003.28;;;13.31;69.87
54806;BME280;62866;55.776;37.496;2022-09-12T07:03:33;99987.56;;;13.27;70.21
54806;BME280;62866;55.776;37.496;2022-09-12T07:06:12;99986.72;;;13.20;70.33
54806;BME280;62866;55.776;37.496;2022-09-12T07:08:38;99996.66;;;13.26;70.16
54806;BME280;62866;55.776;37.496;2022-09-12T07:11:26;100001.00;;;13.27;69.88
54806;BME280;62866;55.776;37.496;2022-09-12T07:13:55;100001.13;;;13.13;69.50
54806;BME280;62866;55.776;37.496;2022-09-12T07:16:21;99999.66;;;13.10;69.67
54806;BME280;62866;55.776;37.496;2022-09-12T07:18:54;99999.31;;;13.13;69.53
54806;BME280;62866;55.776;37.496;2022-09-12T07:21:20;99994.09;;;13.12;69.26
54806;BME280;62866;55.776;37.496;2022-09-12T07:23:46;99996.03;;;13.24;69.00
54806;BME280;62866;55.776;37.496;2022-09-12T07:26:14;99987.84;;;13.46;68.65
54806;BME280;62866;55.776;37.496;2022-09-12T07:28:40;100000.91;;;13.62;68.24
54806;BME280;62866;55.776;37.496;2022-09-12T07:31:13;100001.94;;;13.74;66.91
54806;BME280;62866;55.776;37.496;2022-09-12T07:33:40;100005.47;;;13.81;66.92
54806;BME280;62866;55.776;37.496;2022-09-12T07:36:16;99991.19;;;13.74;66.69
54806;BME280;62866;55.776;37.496;2022-09-12T07:38:42;100012.50;;;13.76;66.63
54806;BME280;62866;55.776;37.496;2022-09-12T07:41:13;100012.06;;;13.65;66.09
54806;BME280;62866;55.776;37.496;2022-09-12T07:43:39;99995.53;;;13.55;66.55
54806;BME280;62866;55.776;37.496;2022-09-12T07:46:06;100009.53;;;13.51;66.84
54806;BME280;62866;55.776;37.496;2022-09-12T07:48:32;100012.59;;;13.41;67.06
54806;BME280;62866;55.776;37.496;2022-09-12T07:50:59;100012.78;;;13.33;67.14
54806;BME280;62866;55.776;37.496;2022-09-12T07:53:33;100019.97;;;13.19;67.49
54806;BME280;62866;55.776;37.496;2022-09-12T07:56:00;100021.59;;;13.14;68.04
54806;BME280;62866;55.776;37.496;2022-09-12T07:58:27;100018.69;;;13.15;68.03
54806;BME280;62866;55.776;37.496;2022-09-12T08:00:53;100019.53;;;13.16;67.86
54806;BME280;62866;55.776;37.496;2022-09-12T08:03:19;100012.97;;;13.25;67.66
54806;BME280;62866;55.776;37.496;2022-09-12T08:05:45;100016.28;;;13.27;67.77
54806;BME280;62866;55.776;37.496;2022-09-12T08:08:10;100009.69;;;13.29;67.64
54806;BME280;62866;55.776;37.496;2022-09-12T08:10:36;100018.78;;;13.35;67.75
54806;BME280;62866;55.776;37.496;2022-09-12T08:13:01;100021.69;;;13.40;67.45
54806;BME280;62866;55.776;37.496;2022-09-12T08:15:28;100008.69;;;13.37;67.26
54806;BME280;62866;55.776;37.496;2022-09-12T08:17:53;100012.41;;;13.36;67.13
54806;BME280;62866;55.776;37.496;2022-09-12T08:20:19;100012.97;;;13.32;67.35
54806;BME280;62866;55.776;37.496;2022-09-12T08:22:45;100020.00;;;13.33;67.57
54806;BME280;62866;55.776;37.496;2022-09-12T08:25:10;100020.44;;;13.29;67.60
54806;BME280;62866;55.776;37.496;2022-09-12T08:27:36;100012.59;;;13.35;67.60
54806;BME280;62866;55.776;37.496;2022-09-12T08:30:03;100017.13;;;13.34;67.77
54806;BME280;62866;55.776;37.496;2022-09-12T08:32:30;100019.25;;;13.45;67.17
54806;BME280;62866;55.776;37.496;2022-09-12T08:34:55;100014.25;;;13.36;67.09
54806;BME280;62866;55.776;37.496;2022-09-12T08:37:21;100019.44;;;13.37;67.31
54806;BME280;62866;55.776;37.496;2022-09-12T08:39:47;100013.63;;;13.40;67.20
54806;BME280;62866;55.776;37.496;2022-09-12T08:42:42;100029.56;;;13.42;67.26
54806;BME280;62866;55.776;37.496;2022-09-12T08:45:16;100016.31;;;13.34;66.98
54806;BME280;62866;55.776;37.496;2022-09-12T08:47:43;100020.59;;;13.21;67.42
54806;BME280;62866;55.776;37.496;2022-09-12T08:55:37;100018.34;;;13.32;67.55
54806;BME280;62866;55.776;37.496;2022-09-12T09:12:32;100014.16;;;13.70;66.33
54806;BME280;62866;55.776;37.496;2022-09-12T09:18:11;100009.22;;;13.93;65.67
54806;BME280;62866;55.776;37.496;2022-09-12T09:20:45;99990.00;;;13.96;64.97
54806;BME280;62866;55.776;37.496;2022-09-12T09:23:24;100000.75;;;14.10;65.00
54806;BME280;62866;55.776;37.496;2022-09-12T09:26:07;99988.16;;;14.17;64.44
54806;BME280;62866;55.776;37.496;2022-09-12T09:28:46;100001.19;;;14.26;64.03
54806;BME280;62866;55.776;37.496;2022-09-12T09:31:18;99997.25;;;14.29;63.82
54806;BME280;62866;55.776;37.496;2022-09-12T09:33:49;99999.50;;;14.32;63.23
54806;BME280;62866;55.776;37.496;2022-09-12T09:36:32;100000.34;;;14.32;62.95
54806;BME280;62866;55.776;37.496;2022-09-12T09:41:36;99998.91;;;14.36;61.85
54806;BME280;62866;55.776;37.496;2022-09-12T09:44:06;99998.91;;;14.30;61.71
54806;BME280;62866;55.776;37.496;2022-09-12T09:46:32;100004.91;;;14.32;61.44
54806;BME280;62866;55.776;37.496;2022-09-12T09:48:59;99996.84;;;14.19;61.40
54806;BME280;62866;55.776;37.496;2022-09-12T09:51:38;100000.34;;;14.26;61.91
54806;BME280;62866;55.776;37.496;2022-09-12T09:55:09;100006.78;;;14.38;61.24
54806;BME280;62866;55.776;37.496;2022-09-12T09:59:58;99998.50;;;14.39;60.71
54806;BME280;62866;55.776;37.496;2022-09-12T10:02:24;99997.47;;;14.40;60.45
54806;BME280;62866;55.776;37.496;2022-09-12T10:04:57;100008.84;;;14.42;60.21
54806;BME280;62866;55.776;37.496;2022-09-12T10:07:24;100002.03;;;14.40;60.45
54806;BME280;62866;55.776;37.496;2022-09-12T10:10:15;100003.06;;;14.46;60.05
54806;BME280;62866;55.776;37.496;2022-09-12T10:12:41;99996.88;;;14.38;60.16
54806;BME280;62866;55.776;37.496;2022-09-12T10:15:18;100004.28;;;14.56;59.66
54806;BME280;62866;55.776;37.496;2022-09-12T10:17:45;100007.81;;;14.63;59.32
54806;BME280;62866;55.776;37.496;2022-09-12T10:20:32;100002.16;;;14.85;59.35
54806;BME280;62866;55.776;37.496;2022-09-12T10:22:59;100002.13;;;15.04;58.11
54806;BME280;62866;55.776;37.496;2022-09-12T10:25:26;99995.63;;;15.18;57.80
54806;BME280;62866;55.776;37.496;2022-09-12T10:27:55;99998.25;;;15.32;57.56
54806;BME280;62866;55.776;37.496;2022-09-12T10:30:23;100003.44;;;15.33;57.28
54806;BME280;62866;55.776;37.496;2022-09-12T10:32:53;100000.56;;;15.28;56.97
54806;BME280;62866;55.776;37.496;2022-09-12T10:35:29;100008.91;;;15.20;56.96
54806;BME280;62866;55.776;37.496;2022-09-12T10:38:02;100000.63;;;15.15;57.11
54806;BME280;62866;55.776;37.496;2022-09-12T10:40:38;100003.56;;;15.00;57.62
54806;BME280;62866;55.776;37.496;2022-09-12T10:46:26;100009.84;;;14.81;58.03
54806;BME280;62866;55.776;37.496;2022-09-12T10:49:31;100011.88;;;14.92;58.27
54806;BME280;62866;55.776;37.496;2022-09-12T10:52:34;100000.25;;;15.05;57.91
54806;BME280;62866;55.776;37.496;2022-09-12T10:54:59;99995.91;;;15.04;57.39
54806;BME280;62866;55.776;37.496;2022-09-12T11:00:09;99994.47;;;15.01;57.48
54806;BME280;62866;55.776;37.496;2022-09-12T11:02:58;99995.72;;;15.05;57.49
54806;BME280;62866;55.776;37.496;2022-09-12T11:05:57;99999.19;;;15.12;57.53
54806;BME280;62866;55.776;37.496;2022-09-12T11:08:50;100006.44;;;15.12;57.07
54806;BME280;62866;55.776;37.496;2022-09-12T11:11:43;100001.06;;;15.12;56.98
54806;BME280;62866;55.776;37.496;2022-09-12T11:17:49;99990.66;;;15.15;57.02
54806;BME280;62866;55.776;37.496;2022-09-12T11:34:08;99986.41;;;14.95;56.82
54806;BME280;62866;55.776;37.496;2022-09-12T11:40:02;99981.06;;;14.88;56.97
54806;BME280;62866;55.776;37.496;2022-09-12T11:42:02;99993.03;;;14.92;57.19
54806;BME280;62866;55.776;37.496;2022-09-12T11:44:39;99981.66;;;14.97;57.08
54806;BME280;62866;55.776;37.496;2022-09-12T11:47:10;99987.84;;;14.91;57.39
54806;BME280;62866;55.776;37.496;2022-09-12T11:49:44;99982.25;;;14.92;57.32
54806;BME280;62866;55.776;37.496;2022-09-12T11:52:23;99980.00;;;14.96;57.14
54806;BME280;62866;55.776;37.496;2022-09-12T11:55:16;99978.31;;;15.01;56.85
54806;BME280;62866;55.776;37.496;2022-09-12T12:00:42;99968.97;;;15.04;56.86
54806;BME280;62866;55.776;37.496;2022-09-12T12:03:25;99967.53;;;15.01;56.69
54806;BME280;62866;55.776;37.496;2022-09-12T12:08:21;99963.19;;;15.00;57.08
54806;BME280;62866;55.776;37.496;2022-09-12T12:10:49;99965.03;;;15.00;56.94
54806;BME280;62866;55.776;37.496;2022-09-12T12:13:46;99962.03;;;14.76;57.61
54806;BME280;62866;55.776;37.496;2022-09-12T12:18:56;99959.16;;;14.65;57.04
54806;BME280;62866;55.776;37.496;2022-09-12T12:21:50;99963.53;;;14.53;57.36
54806;BME280;62866;55.776;37.496;2022-09-12T12:24:21;99962.31;;;14.42;57.69
54806;BME280;62866;55.776;37.496;2022-09-12T12:27:09;99962.31;;;14.42;57.54
54806;BME280;62866;55.776;37.496;2022-09-12T12:29:46;99949.06;;;14.40;57.93
54806;BME280;62866;55.776;37.496;2022-09-12T12:34:41;99951.28;;;14.57;56.89
54806;BME280;62866;55.776;37.496;2022-09-12T12:50:05;99949.63;;;14.69;56.67
54806;BME280;62866;55.776;37.496;2022-09-12T12:52:51;99948.34;;;14.78;56.51
54806;BME280;62866;55.776;37.496;2022-09-12T12:55:29;99942.97;;;14.78;56.21
54806;BME280;62866;55.776;37.496;2022-09-12T12:57:59;99950.88;;;14.66;55.90
54806;BME280;62866;55.776;37.496;2022-09-12T13:00:32;99952.38;;;14.56;56.08
54806;BME280;62866;55.776;37.496;2022-09-12T13:08:27;99950.91;;;14.27;56.54
54806;BME280;62866;55.776;37.496;2022-09-12T13:10:55;99937.25;;;14.15;57.32
54806;BME280;62866;55.776;37.496;2022-09-12T13:13:26;99941.00;;;14.14;57.00
54806;BME280;62866;55.776;37.496;2022-09-12T13:15:53;99940.78;;;14.16;57.35
54806;BME280;62866;55.776;37.496;2022-09-12T13:18:23;99927.56;;;14.14;57.74
54806;BME280;62866;55.776;37.496;2022-09-12T13:23:27;99942.22;;;14.25;57.53
54806;BME280;62866;55.776;37.496;2022-09-12T13:25:53;99946.56;;;14.26;57.13
54806;BME280;62866;55.776;37.496;2022-09-12T13:28:19;99944.91;;;14.25;57.41
54806;BME280;62866;55.776;37.496;2022-09-12T13:30:53;99947.19;;;14.28;57.66
54806;BME280;62866;55.776;37.496;2022-09-12T13:38:45;99940.97;;;14.40;56.87
54806;BME280;62866;55.776;37.496;2022-09-12T13:43:43;99935.41;;;14.42;56.32
54806;BME280;62866;55.776;37.496;2022-09-12T13:46:17;99923.78;;;14.35;56.59
54806;BME280;62866;55.776;37.496;2022-09-12T13:48:46;99928.38;;;14.28;56.68
54806;BME280;62866;55.776;37.496;2022-09-12T13:51:27;99919.28;;;14.22;56.45
54806;BME280;62866;55.776;37.496;2022-09-12T13:53:57;99924.84;;;14.21;56.56
54806;BME280;62866;55.776;37.496;2022-09-12T13:56:24;99893.84;;;13.98;56.97
54806;BME280;62866;55.776;37.496;2022-09-12T13:59:01;99925.28;;;14.11;57.13
54806;BME280;62866;55.776;37.496;2022-09-12T14:01:41;99922.38;;;14.13;56.88
54806;BME280;62866;55.776;37.496;2022-09-12T14:06:59;99924.63;;;14.16;57.56
54806;BME280;62866;55.776;37.496;2022-09-12T14:09:33;99923.81;;;14.15;57.38
54806;BME280;62866;55.776;37.496;2022-09-12T14:11:59;99931.06;;;14.21;57.50
54806;BME280;62866;55.776;37.496;2022-09-12T14:14:33;99927.53;;;14.21;57.23
54806;BME280;62866;55.776;37.496;2022-09-12T14:17:14;99929.63;;;14.12;57.57
54806;BME280;62866;55.776;37.496;2022-09-12T14:19:41;99934.56;;;14.09;57.83
54806;BME280;62866;55.776;37.496;2022-09-12T14:22:12;99933.75;;;14.08;57.83
54806;BME280;62866;55.776;37.496;2022-09-12T14:24:46;99941.63;;;14.03;58.04
54806;BME280;62866;55.776;37.496;2022-09-12T14:27:21;99934.16;;;13.98;57.96
54806;BME280;62866;55.776;37.496;2022-09-12T14:29:51;99933.75;;;13.95;57.93
54806;BME280;62866;55.776;37.496;2022-09-12T14:32:23;99931.06;;;13.95;58.25
54806;BME280;62866;55.776;37.496;2022-09-12T14:37:36;99927.97;;;14.04;58.31
54806;BME280;62866;55.776;37.496;2022-09-12T14:40:11;99918.88;;;13.86;58.49
54806;BME280;62866;55.776;37.496;2022-09-12T14:42:40;99943.25;;;13.91;58.65
54806;BME280;62866;55.776;37.496;2022-09-12T14:45:28;99932.09;;;13.94;58.92
54806;BME280;62866;55.776;37.496;2022-09-12T14:47:54;99935.00;;;13.86;59.03
54806;BME280;62866;55.776;37.496;2022-09-12T14:50:26;99941.81;;;13.82;59.35
54806;BME280;62866;55.776;37.496;2022-09-12T14:53:05;99928.56;;;13.67;59.55
54806;BME280;62866;55.776;37.496;2022-09-12T14:55:33;99941.59;;;13.63;59.65
54806;BME280;62866;55.776;37.496;2022-09-12T14:58:15;99939.13;;;13.62;59.75
54806;BME280;62866;55.776;37.496;2022-09-12T15:00:59;99943.03;;;13.59;59.93
54806;BME280;62866;55.776;37.496;2022-09-12T15:03:32;99943.66;;;13.55;60.22
54806;BME280;62866;55.776;37.496;2022-09-12T15:06:00;99939.06;;;13.49;60.41
54806;BME280;62866;55.776;37.496;2022-09-12T15:08:27;99939.91;;;13.49;60.50
54806;BME280;62866;55.776;37.496;2022-09-12T15:10:53;99943.63;;;13.48;61.01
54806;BME280;62866;55.776;37.496;2022-09-12T15:13:24;99953.53;;;13.48;60.79
54806;BME280;62866;55.776;37.496;2022-09-12T15:15:51;99948.38;;;13.46;61.00
54806;BME280;62866;55.776;37.496;2022-09-12T15:18:18;99948.59;;;13.45;60.77
54806;BME280;62866;55.776;37.496;2022-09-12T15:20:45;99950.84;;;13.41;60.63